Terminal Aerodrome Forecast
Issued by NWS

Home | Current Version | Previous Version | Text Only | Print | Product List | Glossary On
Versions: 1 2 3 4 5 6 7 8 9 10 11 12
000
FTUS45 KREV 042331
TAFMMH
TAF
KMMH 042331Z 0500/0524 24012G20KT P6SM SCT100 OVC180
     FM050300 30009G16KT P6SM FEW100 BKN180
     FM050600 26008KT P6SM SCT130
     FM051900 25013G22KT P6SM SCT180=

USA.gov is the U.S. government's official web portal to all federal, state and local government web resources and services.